Time;durP1;ratioP1;P1;durP2;ratioP2;P2;SDS_P1;SDS_P2;PMS_P1;PMS_P2;Temp;Humidity;BMP_temperature;BMP_pressure;BME280_temperature;BME280_humidity;BME280_pressure;Samples;Min_cycle;Max_cycle;Signal;HPM_P1;HPM_P2
2022/03/04 00:00:41;;;;;;;23.73;17.27;;;9.90;96.70;;;;;;4997486;28;20148;-82
2022/03/04 00:03:11;;;;;;;19.77;14.82;;;9.80;96.70;;;;;;4975664;28;20053;-82
2022/03/04 00:05:39;;;;;;;17.52;15.15;;;9.80;96.70;;;;;;4993492;28;20094;-82
2022/03/04 00:08:07;;;;;;;21.20;15.73;;;9.80;96.70;;;;;;4987753;28;20650;-83
2022/03/04 00:10:35;;;;;;;19.40;13.95;;;9.80;96.70;;;;;;4993518;28;20571;-82
2022/03/04 00:13:05;;;;;;;20.63;14.43;;;9.80;96.70;;;;;;5004474;28;20096;-82
2022/03/04 00:15:33;;;;;;;16.27;12.50;;;9.80;96.70;;;;;;4989873;28;20105;-81
2022/03/04 00:18:01;;;;;;;15.52;13.30;;;9.80;96.70;;;;;;4991537;28;20042;-83
2022/03/04 00:20:29;;;;;;;14.45;12.93;;;9.80;96.70;;;;;;5010629;28;20050;-82
2022/03/04 00:22:56;;;;;;;16.13;12.73;;;9.70;96.70;;;;;;4996508;28;20057;-80
2022/03/04 00:25:24;;;;;;;16.40;11.60;;;9.70;96.70;;;;;;5007132;28;20047;-82
2022/03/04 00:27:52;;;;;;;16.45;12.38;;;9.60;96.70;;;;;;4992065;28;20516;-82
2022/03/04 00:30:21;;;;;;;15.32;12.48;;;9.60;96.70;;;;;;5007634;28;20129;-82
2022/03/04 00:32:49;;;;;;;15.50;12.10;;;9.70;96.70;;;;;;5005329;28;20093;-83
2022/03/04 00:35:16;;;;;;;13.38;11.88;;;9.70;96.70;;;;;;4995045;28;20096;-82
2022/03/04 00:37:44;;;;;;;17.33;12.60;;;9.70;96.70;;;;;;4988332;28;20057;-82
2022/03/04 00:40:14;;;;;;;23.13;14.52;;;9.70;96.70;;;;;;4996515;28;20434;-82
2022/03/04 00:42:42;;;;;;;16.42;12.77;;;9.60;96.70;;;;;;4994520;28;20089;-82
2022/03/04 00:45:10;;;;;;;14.77;12.20;;;9.60;96.70;;;;;;4976132;28;20112;-82
2022/03/04 00:47:40;;;;;;;18.10;13.85;;;9.50;96.70;;;;;;4989475;28;20073;-82
2022/03/04 00:50:09;;;;;;;22.00;14.20;;;9.60;96.70;;;;;;5003049;28;20720;-82
2022/03/04 00:52:37;;;;;;;14.82;12.82;;;9.60;96.70;;;;;;5005582;28;20093;-82
2022/03/04 00:55:06;;;;;;;16.35;12.70;;;9.60;96.70;;;;;;5002118;28;20439;-81
2022/03/04 00:57:34;;;;;;;17.38;12.75;;;9.60;96.70;;;;;;4984298;28;20042;-82
2022/03/04 01:00:02;;;;;;;17.33;12.90;;;9.60;96.70;;;;;;4987843;28;20066;-82
2022/03/04 01:02:30;;;;;;;16.92;13.48;;;9.60;96.70;;;;;;5003833;28;20042;-82
2022/03/04 01:05:00;;;;;;;16.25;12.25;;;9.60;96.70;;;;;;4985984;28;20046;-82
2022/03/04 01:07:28;;;;;;;15.95;13.10;;;9.50;96.70;;;;;;4987358;28;20542;-81
2022/03/04 01:09:55;;;;;;;18.70;13.48;;;9.50;96.70;;;;;;4993089;28;20043;-83
2022/03/04 01:12:23;;;;;;;17.08;12.43;;;9.50;96.70;;;;;;5012084;28;20594;-83
2022/03/04 01:14:53;;;;;;;12.45;10.55;;;9.60;96.70;;;;;;5004181;28;20054;-82
2022/03/04 01:17:21;;;;;;;15.95;11.48;;;9.60;96.70;;;;;;4987650;28;20046;-83
2022/03/04 01:19:49;;;;;;;11.23;8.93;;;9.60;96.70;;;;;;4976994;28;20042;-82
2022/03/04 01:22:18;;;;;;;10.05;8.02;;;9.60;96.70;;;;;;4988905;28;20140;-82
2022/03/04 01:24:45;;;;;;;11.00;8.65;;;9.60;96.70;;;;;;4989883;28;20046;-83
2022/03/04 01:27:13;;;;;;;9.60;7.63;;;9.50;96.70;;;;;;4996783;28;20038;-83
2022/03/04 01:29:41;;;;;;;8.85;7.47;;;9.40;96.70;;;;;;4987789;28;20030;-82
2022/03/04 01:32:09;;;;;;;10.52;7.38;;;9.30;96.70;;;;;;4990550;28;20046;-83
2022/03/04 01:34:36;;;;;;;8.70;7.13;;;9.30;96.70;;;;;;4988052;28;20149;-83
2022/03/04 01:37:06;;;;;;;8.40;6.78;;;9.20;96.70;;;;;;4986202;28;20124;-83
2022/03/04 01:39:36;;;;;;;10.57;7.45;;;9.20;96.70;;;;;;4987315;28;20057;-81
2022/03/04 01:42:04;;;;;;;10.30;7.47;;;9.20;96.70;;;;;;5005092;28;20089;-81
2022/03/04 01:44:32;;;;;;;12.73;7.18;;;9.10;96.70;;;;;;4985812;28;20088;-81
2022/03/04 01:47:00;;;;;;;10.57;6.88;;;9.10;96.70;;;;;;5007698;28;20088;-81
2022/03/04 01:49:28;;;;;;;9.07;7.53;;;9.10;96.70;;;;;;4987434;28;20061;-82
2022/03/04 01:51:56;;;;;;;9.43;7.78;;;9.20;96.70;;;;;;4985217;28;20039;-82
2022/03/04 01:54:23;;;;;;;10.23;8.13;;;9.20;96.70;;;;;;5004242;28;20046;-82
2022/03/04 01:56:53;;;;;;;10.23;8.43;;;9.00;96.70;;;;;;5001238;28;20039;-82
2022/03/04 01:59:21;;;;;;;9.82;7.45;;;9.00;96.70;;;;;;4988987;28;20510;-82
2022/03/04 02:01:51;;;;;;;10.13;7.72;;;9.00;96.70;;;;;;5015451;28;20096;-83
2022/03/04 02:04:20;;;;;;;10.60;9.60;;;8.90;96.70;;;;;;5004901;28;20097;-82
2022/03/04 02:06:47;;;;;;;11.02;8.85;;;8.90;96.70;;;;;;5005303;28;20073;-82
2022/03/04 02:09:15;;;;;;;11.23;8.43;;;9.10;96.70;;;;;;5001026;28;20054;-82
2022/03/04 02:11:44;;;;;;;11.25;8.57;;;9.10;96.70;;;;;;4989974;28;20488;-82
2022/03/04 02:14:13;;;;;;;10.27;8.40;;;9.10;96.70;;;;;;4986547;28;20046;-82
2022/03/04 02:16:44;;;;;;;10.88;8.57;;;9.10;96.70;;;;;;4993440;28;20050;-82
2022/03/04 02:19:12;;;;;;;10.20;7.72;;;9.20;96.70;;;;;;4990137;28;20053;-82
2022/03/04 02:21:47;;;;;;;11.50;8.48;;;9.20;96.70;;;;;;4992320;28;20050;-81
2022/03/04 02:24:17;;;;;;;11.30;8.82;;;9.20;96.70;;;;;;5003421;28;20057;-80
2022/03/04 02:26:45;;;;;;;13.80;8.55;;;9.20;96.70;;;;;;4985906;28;20049;-80
2022/03/04 02:29:17;;;;;;;12.63;7.70;;;9.20;96.70;;;;;;4985352;28;20054;-80
2022/03/04 02:31:47;;;;;;;10.85;7.63;;;9.20;96.70;;;;;;4988988;28;20089;-81
2022/03/04 02:34:16;;;;;;;8.70;7.65;;;9.20;96.70;;;;;;4988133;28;20050;-80
2022/03/04 02:36:44;;;;;;;11.77;9.48;;;9.20;96.70;;;;;;4978793;28;20334;-82
2022/03/04 02:39:16;;;;;;;12.18;10.55;;;9.20;96.70;;;;;;4996930;28;20034;-83
2022/03/04 02:41:44;;;;;;;13.20;11.75;;;9.10;96.70;;;;;;5013714;28;20045;-83
2022/03/04 02:44:13;;;;;;;17.83;13.35;;;9.10;96.70;;;;;;4986635;28;20066;-83
2022/03/04 02:46:42;;;;;;;18.38;14.68;;;9.10;96.70;;;;;;5003887;28;20049;-83
2022/03/04 02:49:11;;;;;;;18.02;14.80;;;9.10;96.70;;;;;;4997561;28;20061;-83
2022/03/04 02:51:42;;;;;;;22.55;15.75;;;9.10;96.70;;;;;;4988992;28;20034;-83
2022/03/04 02:54:10;;;;;;;21.48;15.82;;;9.10;96.70;;;;;;4979663;28;20050;-83
2022/03/04 02:56:41;;;;;;;18.73;15.02;;;9.10;96.70;;;;;;4990167;28;20046;-82
2022/03/04 02:59:09;;;;;;;18.00;14.45;;;9.10;96.70;;;;;;4991663;28;20088;-82
2022/03/04 03:01:37;;;;;;;19.85;14.30;;;9.10;96.70;;;;;;4981308;28;20056;-83
2022/03/04 03:04:06;;;;;;;19.42;15.35;;;9.10;96.70;;;;;;4995767;28;21026;-84
2022/03/04 03:06:35;;;;;;;17.90;14.25;;;9.00;96.70;;;;;;4986069;28;20050;-83
2022/03/04 03:09:03;;;;;;;18.60;14.27;;;9.00;96.70;;;;;;5005703;28;20053;-83
2022/03/04 03:11:32;;;;;;;17.65;13.93;;;9.00;96.70;;;;;;4970538;28;20074;-83
2022/03/04 03:14:02;;;;;;;21.60;14.93;;;9.10;96.70;;;;;;5002396;28;20046;-83
2022/03/04 03:16:30;;;;;;;23.67;15.35;;;9.00;96.70;;;;;;4993997;28;20129;-83
2022/03/04 03:18:58;;;;;;;19.92;15.00;;;9.00;96.70;;;;;;4989549;28;20042;-83
2022/03/04 03:21:27;;;;;;;19.40;15.18;;;9.00;96.70;;;;;;4985771;28;20050;-83
2022/03/04 03:23:55;;;;;;;21.98;15.65;;;9.00;96.70;;;;;;4990428;28;20054;-83
2022/03/04 03:26:23;;;;;;;21.40;16.02;;;9.10;96.70;;;;;;4989585;28;20129;-83
2022/03/04 03:28:52;;;;;;;21.60;16.20;;;9.00;96.70;;;;;;4973999;28;20042;-83
2022/03/04 03:31:22;;;;;;;21.30;15.70;;;9.10;96.70;;;;;;4997539;28;20409;-83
2022/03/04 03:33:50;;;;;;;22.90;15.75;;;9.00;96.70;;;;;;4986246;28;20622;-83
2022/03/04 03:36:20;;;;;;;21.63;16.08;;;9.00;96.70;;;;;;4994159;28;20048;-83
2022/03/04 03:38:48;;;;;;;21.88;15.93;;;9.10;96.70;;;;;;4978531;28;20101;-83
2022/03/04 03:41:17;;;;;;;21.60;15.65;;;9.10;96.70;;;;;;4993876;28;20070;-83
2022/03/04 03:43:45;;;;;;;20.65;15.63;;;9.10;96.70;;;;;;4980848;28;20046;-83
2022/03/04 03:46:13;;;;;;;18.98;15.05;;;9.20;96.70;;;;;;4987174;28;20101;-83
2022/03/04 03:48:43;;;;;;;21.02;17.25;;;9.20;96.70;;;;;;4983915;28;20125;-83
2022/03/04 03:51:12;;;;;;;20.98;15.20;;;9.10;96.70;;;;;;4985584;28;20050;-83
2022/03/04 03:53:41;;;;;;;20.23;15.43;;;9.10;96.70;;;;;;4986881;28;20046;-83
2022/03/04 03:56:09;;;;;;;19.92;15.75;;;9.00;96.70;;;;;;4985149;28;20039;-83
2022/03/04 03:58:39;;;;;;;21.83;15.18;;;8.90;96.70;;;;;;4996406;28;20129;-83
2022/03/04 04:01:07;;;;;;;23.88;15.20;;;9.00;96.70;;;;;;4986978;28;20174;-83
2022/03/04 04:03:35;;;;;;;20.50;15.68;;;9.00;96.70;;;;;;4969097;28;20523;-83
2022/03/04 04:06:07;;;;;;;20.80;16.75;;;9.00;96.70;;;;;;4984034;28;20342;-83
2022/03/04 04:08:35;;;;;;;23.88;15.95;;;9.00;96.70;;;;;;5002961;28;20078;-83
2022/03/04 04:11:04;;;;;;;24.98;15.88;;;8.90;96.70;;;;;;4986862;28;20046;-83
2022/03/04 04:13:33;;;;;;;20.90;16.95;;;8.80;96.70;;;;;;4989528;28;20061;-83
2022/03/04 04:16:01;;;;;;;20.88;15.93;;;8.90;96.70;;;;;;5004970;28;20927;-83
2022/03/04 04:18:30;;;;;;;22.13;17.33;;;8.90;96.70;;;;;;4990615;28;20049;-83
2022/03/04 04:20:59;;;;;;;21.63;17.23;;;8.80;96.70;;;;;;5010019;28;20046;-82
2022/03/04 04:23:29;;;;;;;21.70;16.40;;;8.80;96.70;;;;;;4997954;28;20042;-82
2022/03/04 04:25:57;;;;;;;21.35;16.17;;;8.80;96.70;;;;;;4992057;28;20046;-82
2022/03/04 04:28:26;;;;;;;20.85;15.93;;;8.80;96.70;;;;;;4984590;28;20089;-81
2022/03/04 04:30:54;;;;;;;20.80;15.38;;;8.80;96.70;;;;;;4979560;28;20076;-81
2022/03/04 04:33:22;;;;;;;20.70;15.45;;;8.90;96.70;;;;;;4992241;28;20070;-82
2022/03/04 04:35:52;;;;;;;22.90;16.90;;;8.90;96.70;;;;;;4998360;28;20121;-81
2022/03/04 04:38:20;;;;;;;23.77;17.63;;;9.00;96.70;;;;;;4971323;28;20069;-82
2022/03/04 04:40:50;;;;;;;22.05;16.45;;;9.00;96.70;;;;;;4991391;28;20054;-82
2022/03/04 04:43:18;;;;;;;20.98;15.48;;;9.00;96.70;;;;;;5008840;28;20209;-82
2022/03/04 04:45:47;;;;;;;22.25;16.77;;;9.00;96.70;;;;;;4990426;28;20081;-83
2022/03/04 04:48:15;;;;;;;21.58;15.55;;;9.10;96.70;;;;;;4998309;28;20057;-83
2022/03/04 04:50:44;;;;;;;20.23;16.33;;;9.00;96.70;;;;;;4994492;28;20057;-83
2022/03/04 04:53:12;;;;;;;21.17;16.05;;;9.00;96.70;;;;;;5007457;28;20042;-83
2022/03/04 04:55:40;;;;;;;23.95;16.52;;;8.90;96.70;;;;;;4989482;28;20057;-83
2022/03/04 04:58:10;;;;;;;18.55;15.75;;;8.90;96.70;;;;;;4991321;28;20495;-83
2022/03/04 05:00:40;;;;;;;19.35;15.27;;;8.90;96.70;;;;;;4990156;28;20332;-83
2022/03/04 05:03:08;;;;;;;24.00;17.92;;;8.90;96.70;;;;;;5015400;28;20539;-83
2022/03/04 05:05:40;;;;;;;23.67;16.42;;;8.90;96.70;;;;;;4987073;28;20054;-84
2022/03/04 05:08:08;;;;;;;24.50;16.90;;;8.90;96.70;;;;;;4989357;28;20042;-84
2022/03/04 05:10:39;;;;;;;20.02;15.75;;;8.90;96.70;;;;;;4997771;28;20567;-84
2022/03/04 05:13:09;;;;;;;21.25;16.33;;;8.90;96.70;;;;;;4994600;28;20069;-84
2022/03/04 05:15:38;;;;;;;20.90;16.20;;;8.90;96.70;;;;;;4987840;28;20046;-83
2022/03/04 05:18:08;;;;;;;21.80;16.13;;;8.90;96.70;;;;;;4978698;28;20050;-82
2022/03/04 05:20:36;;;;;;;20.33;16.02;;;8.90;96.70;;;;;;4991127;28;20042;-83
2022/03/04 05:23:04;;;;;;;22.08;15.95;;;8.80;96.70;;;;;;4980083;28;20460;-83
2022/03/04 05:25:33;;;;;;;25.27;16.90;;;8.70;96.70;;;;;;4988441;28;20057;-84
2022/03/04 05:28:01;;;;;;;20.92;16.90;;;8.60;96.70;;;;;;4992912;28;20070;-83
2022/03/04 05:30:32;;;;;;;21.13;16.15;;;8.60;96.70;;;;;;4993947;28;20069;-82
2022/03/04 05:33:00;;;;;;;20.73;16.08;;;8.50;96.70;;;;;;4986529;28;20141;-82
2022/03/04 05:35:29;;;;;;;21.70;16.73;;;8.50;96.70;;;;;;4975438;28;20462;-82
2022/03/04 05:37:57;;;;;;;23.15;16.58;;;8.50;96.70;;;;;;4983069;28;20056;-83
2022/03/04 05:40:26;;;;;;;21.70;17.42;;;8.50;96.70;;;;;;5004458;28;20061;-83
2022/03/04 05:42:54;;;;;;;20.05;15.20;;;8.40;96.70;;;;;;4989165;28;20609;-84
2022/03/04 05:45:24;;;;;;;20.45;15.75;;;8.30;96.70;;;;;;4977129;28;20137;-82
2022/03/04 05:47:54;;;;;;;22.63;16.23;;;8.30;96.70;;;;;;4990459;28;20062;-82
2022/03/04 05:50:23;;;;;;;22.88;16.65;;;8.30;96.70;;;;;;4971800;28;20134;-82
2022/03/04 05:52:51;;;;;;;20.65;15.55;;;8.30;96.70;;;;;;4989941;28;20076;-81
2022/03/04 05:55:22;;;;;;;20.90;15.50;;;8.30;96.70;;;;;;4989862;28;20057;-82
2022/03/04 05:57:50;;;;;;;20.67;15.90;;;8.40;96.70;;;;;;4991069;28;20037;-82
2022/03/04 06:00:18;;;;;;;21.92;15.32;;;8.40;96.70;;;;;;4976765;28;20117;-82
2022/03/04 06:02:46;;;;;;;19.35;14.70;;;8.40;96.70;;;;;;4990876;28;20050;-82
2022/03/04 06:05:16;;;;;;;22.05;15.05;;;8.40;96.70;;;;;;4996182;28;20092;-82
2022/03/04 06:07:44;;;;;;;20.08;14.93;;;8.50;96.70;;;;;;4987771;28;20046;-82
2022/03/04 06:10:12;;;;;;;22.23;16.20;;;8.50;96.70;;;;;;4989907;28;20042;-83
2022/03/04 06:12:40;;;;;;;20.85;15.20;;;8.50;96.70;;;;;;4991070;28;20034;-83
2022/03/04 06:15:09;;;;;;;21.42;14.65;;;8.60;96.70;;;;;;4988566;28;20500;-82
2022/03/04 06:17:37;;;;;;;19.55;14.75;;;8.60;96.70;;;;;;4989024;28;20084;-82
2022/03/04 06:20:07;;;;;;;19.60;14.93;;;8.60;96.70;;;;;;4987070;28;20081;-83
2022/03/04 06:22:36;;;;;;;20.60;15.55;;;8.60;96.70;;;;;;4985580;28;20049;-82
2022/03/04 06:25:05;;;;;;;22.70;15.38;;;8.70;96.70;;;;;;4978271;28;20125;-82
2022/03/04 06:27:34;;;;;;;19.48;13.80;;;8.70;96.70;;;;;;4996380;28;20042;-82
2022/03/04 06:30:03;;;;;;;19.15;14.15;;;8.80;96.70;;;;;;4990786;28;20078;-82
2022/03/04 06:32:31;;;;;;;17.73;12.90;;;8.90;96.70;;;;;;4991196;28;20074;-82
2022/03/04 06:34:59;;;;;;;19.00;14.32;;;8.80;96.70;;;;;;4989148;28;20111;-83
2022/03/04 06:37:28;;;;;;;16.52;13.50;;;8.60;96.70;;;;;;4984707;28;20042;-82
2022/03/04 06:39:57;;;;;;;14.68;11.90;;;8.50;96.70;;;;;;4985926;28;20042;-81
2022/03/04 06:42:26;;;;;;;16.73;11.50;;;8.50;96.70;;;;;;4989181;28;20054;-84
2022/03/04 06:44:54;;;;;;;18.13;11.98;;;8.50;96.70;;;;;;4987992;28;20046;-84
2022/03/04 06:47:27;;;;;;;15.77;12.35;;;8.50;96.70;;;;;;4988337;28;20392;-84
2022/03/04 06:49:55;;;;;;;16.63;11.75;;;8.50;96.70;;;;;;5003851;28;20050;-84
2022/03/04 06:52:23;;;;;;;15.45;10.90;;;8.50;96.70;;;;;;5005263;28;20035;-84
2022/03/04 06:54:52;;;;;;;15.05;9.75;;;8.50;96.70;;;;;;4993798;28;20525;-84
2022/03/04 06:57:21;;;;;;;13.70;9.82;;;8.60;96.70;;;;;;4992525;28;20472;-84
2022/03/04 06:59:49;;;;;;;13.75;9.93;;;8.70;96.70;;;;;;4989214;28;20042;-83
2022/03/04 07:02:18;;;;;;;14.05;9.95;;;8.80;96.70;;;;;;4989341;28;20512;-84
2022/03/04 07:04:49;;;;;;;18.10;9.60;;;8.80;96.70;;;;;;4995729;28;20038;-84
2022/03/04 07:07:17;;;;;;;14.93;9.07;;;8.90;96.70;;;;;;5008675;28;20058;-84
2022/03/04 07:09:46;;;;;;;13.30;9.30;;;9.00;96.70;;;;;;4986186;28;20117;-84
2022/03/04 07:12:13;;;;;;;16.40;9.65;;;9.00;96.70;;;;;;4997074;28;20046;-84
2022/03/04 07:14:43;;;;;;;13.25;8.75;;;9.00;96.70;;;;;;5001980;28;20046;-84
2022/03/04 07:17:11;;;;;;;13.98;8.75;;;9.00;96.70;;;;;;4987965;28;20395;-84
2022/03/04 07:19:40;;;;;;;11.68;9.07;;;9.00;96.70;;;;;;4982400;28;20046;-84
2022/03/04 07:22:08;;;;;;;13.70;9.27;;;9.10;96.70;;;;;;4987475;28;20492;-84
2022/03/04 07:24:37;;;;;;;11.70;8.90;;;9.10;96.70;;;;;;4997693;28;20046;-84
2022/03/04 07:27:06;;;;;;;13.18;8.80;;;9.20;96.70;;;;;;5001831;28;20459;-84
2022/03/04 07:29:34;;;;;;;14.43;9.75;;;9.20;96.70;;;;;;4992552;28;20558;-85
2022/03/04 07:32:04;;;;;;;17.95;10.10;;;9.20;96.70;;;;;;4994060;28;20038;-84
2022/03/04 07:34:32;;;;;;;15.27;9.85;;;9.30;96.70;;;;;;4991567;28;20092;-84
2022/03/04 07:37:00;;;;;;;13.65;9.68;;;9.40;96.70;;;;;;4983028;28;20042;-84
2022/03/04 07:39:28;;;;;;;16.33;9.05;;;9.40;96.70;;;;;;4985566;28;20074;-84
2022/03/04 07:41:56;;;;;;;10.82;8.25;;;9.40;96.70;;;;;;4986815;28;20193;-84
2022/03/04 07:44:28;;;;;;;11.07;7.80;;;9.40;96.70;;;;;;4993087;28;20164;-84
2022/03/04 07:46:56;;;;;;;9.57;7.72;;;9.60;96.70;;;;;;4986412;28;20101;-84
2022/03/04 07:49:26;;;;;;;9.45;7.28;;;9.60;96.70;;;;;;4985616;28;20149;-84
2022/03/04 07:51:54;;;;;;;8.48;6.40;;;9.70;96.70;;;;;;4984815;28;20054;-84
2022/03/04 07:54:22;;;;;;;8.35;7.22;;;9.80;96.70;;;;;;4999554;28;20038;-85
2022/03/04 07:56:52;;;;;;;10.30;6.78;;;9.90;96.70;;;;;;4991024;28;20186;-84
2022/03/04 07:59:21;;;;;;;10.05;7.80;;;10.00;96.70;;;;;;4991485;28;20129;-85
2022/03/04 08:01:49;;;;;;;8.98;6.78;;;10.10;96.70;;;;;;4989650;28;20133;-86
2022/03/04 08:04:18;;;;;;;9.43;7.13;;;10.20;96.70;;;;;;4992596;28;20070;-86
2022/03/04 08:06:48;;;;;;;9.68;7.05;;;10.20;96.70;;;;;;4977342;28;20141;-85
2022/03/04 08:09:16;;;;;;;7.93;6.53;;;10.20;96.70;;;;;;5007603;28;20054;-83
2022/03/04 08:11:46;;;;;;;9.32;7.07;;;10.20;96.70;;;;;;5011590;28;20661;-84
2022/03/04 08:14:17;;;;;;;8.27;7.25;;;10.30;96.70;;;;;;4991799;28;20089;-84
2022/03/04 08:16:45;;;;;;;8.80;7.05;;;10.30;96.70;;;;;;4975012;28;20133;-84
2022/03/04 08:19:13;;;;;;;7.97;6.68;;;10.40;96.70;;;;;;4994159;28;20152;-83
2022/03/04 08:21:43;;;;;;;7.25;6.30;;;10.40;96.70;;;;;;5015377;28;20057;-83
2022/03/04 08:24:12;;;;;;;8.35;6.95;;;10.40;96.70;;;;;;5000471;28;20062;-81
2022/03/04 08:26:41;;;;;;;8.05;6.40;;;10.50;96.70;;;;;;4978802;28;20367;-83
2022/03/04 08:29:10;;;;;;;9.23;7.28;;;10.50;96.70;;;;;;4992016;28;20516;-82
2022/03/04 08:31:38;;;;;;;9.32;7.30;;;10.60;96.70;;;;;;5004667;28;20039;-88
2022/03/04 08:34:06;;;;;;;8.18;6.93;;;10.60;96.70;;;;;;5007677;28;20555;-85
2022/03/04 08:36:36;;;;;;;8.15;6.72;;;10.70;96.70;;;;;;5010605;28;20034;-85
2022/03/04 08:39:05;;;;;;;7.53;6.35;;;10.80;96.70;;;;;;5013829;28;20065;-88
2022/03/04 08:41:35;;;;;;;10.00;6.68;;;10.90;96.70;;;;;;4995210;28;20042;-86
2022/03/04 08:44:03;;;;;;;6.80;6.10;;;10.90;96.70;;;;;;5010052;28;20042;-86
2022/03/04 08:46:32;;;;;;;12.20;6.38;;;10.90;96.70;;;;;;4978780;28;20492;-86
2022/03/04 08:49:00;;;;;;;6.90;6.20;;;11.00;96.70;;;;;;4978214;28;20089;-86
2022/03/04 08:51:28;;;;;;;7.07;6.20;;;11.10;96.70;;;;;;5008175;28;20054;-85
2022/03/04 08:53:56;;;;;;;7.90;5.60;;;11.10;96.70;;;;;;4992111;28;20492;-88
2022/03/04 08:56:24;;;;;;;6.75;5.93;;;11.20;96.70;;;;;;5006998;28;20133;-85
2022/03/04 08:58:53;;;;;;;6.03;5.32;;;11.20;96.70;;;;;;4996324;28;20046;-85
2022/03/04 09:01:21;;;;;;;7.05;5.90;;;11.30;96.70;;;;;;5002049;28;20103;-86
2022/03/04 09:03:50;;;;;;;6.90;5.97;;;11.40;96.70;;;;;;4991604;28;20054;-87
2022/03/04 09:06:18;;;;;;;7.25;5.68;;;11.40;96.70;;;;;;4984628;28;20130;-83
2022/03/04 09:08:46;;;;;;;8.70;6.88;;;11.50;96.70;;;;;;5013743;28;20046;-83
2022/03/04 09:11:14;;;;;;;7.25;6.38;;;11.60;96.70;;;;;;4984404;28;20042;-83
2022/03/04 09:13:42;;;;;;;7.28;5.65;;;11.60;96.70;;;;;;4992024;28;20049;-84
2022/03/04 09:16:12;;;;;;;7.38;6.57;;;11.70;96.70;;;;;;4992799;28;20042;-84
2022/03/04 09:18:40;;;;;;;9.88;6.47;;;11.70;96.70;;;;;;5003174;28;20042;-84
2022/03/04 09:21:08;;;;;;;6.72;5.90;;;11.80;96.70;;;;;;5008932;28;20034;-84
2022/03/04 09:23:36;;;;;;;9.18;7.43;;;11.80;96.70;;;;;;5003882;28;20907;-83
2022/03/04 09:26:04;;;;;;;7.50;6.18;;;11.80;96.70;;;;;;5012220;28;20039;-84
2022/03/04 09:28:32;;;;;;;8.15;7.00;;;11.90;96.70;;;;;;4986891;28;20073;-84
2022/03/04 09:31:01;;;;;;;9.00;7.15;;;12.00;96.70;;;;;;4972931;28;20512;-85
2022/03/04 09:33:31;;;;;;;9.40;7.38;;;12.00;96.70;;;;;;5005869;28;20101;-84
2022/03/04 09:36:00;;;;;;;8.90;7.68;;;12.10;96.70;;;;;;5000359;28;20049;-84
2022/03/04 09:38:29;;;;;;;10.43;8.05;;;12.20;96.70;;;;;;4988454;28;20034;-84
2022/03/04 09:40:59;;;;;;;11.32;9.00;;;12.40;96.70;;;;;;4987304;28;20105;-84
2022/03/04 09:43:27;;;;;;;11.23;9.43;;;12.40;96.70;;;;;;4995055;28;20522;-83
2022/03/04 09:45:56;;;;;;;9.48;8.30;;;12.50;96.70;;;;;;4990585;28;20129;-84
2022/03/04 09:48:25;;;;;;;12.57;8.85;;;12.60;96.70;;;;;;4989429;28;20055;-82
2022/03/04 09:50:54;;;;;;;10.57;8.55;;;12.60;96.70;;;;;;5001154;28;20038;-85
2022/03/04 09:53:23;;;;;;;12.00;8.98;;;12.70;96.70;;;;;;5005304;28;20035;-85
2022/03/04 09:55:51;;;;;;;12.35;9.32;;;12.80;96.70;;;;;;4989434;28;20046;-86
2022/03/04 09:58:19;;;;;;;13.43;9.95;;;12.90;96.70;;;;;;4995614;28;20054;-87
2022/03/04 10:00:50;;;;;;;11.95;10.02;;;12.90;96.70;;;;;;4989280;28;20092;-89
2022/03/04 10:03:40;;;;;;;12.65;10.88;;;13.00;96.70;;;;;;5004607;28;20046;-85
2022/03/04 10:06:10;;;;;;;14.60;11.13;;;13.00;96.70;;;;;;4994575;28;20045;-84
2022/03/04 10:08:40;;;;;;;13.85;11.75;;;13.10;96.70;;;;;;4994481;28;20050;-82
2022/03/04 10:11:09;;;;;;;13.82;11.93;;;13.20;96.70;;;;;;5004774;28;20069;-82
2022/03/04 10:13:45;;;;;;;17.60;13.15;;;13.30;96.70;;;;;;4990093;28;20042;-83
2022/03/04 10:16:23;;;;;;;17.02;13.77;;;13.20;96.70;;;;;;5002147;28;20051;-87
2022/03/04 10:19:07;;;;;;;15.73;13.02;;;13.30;96.70;;;;;;4990168;28;20034;-86
2022/03/04 10:21:48;;;;;;;14.85;12.02;;;13.40;96.70;;;;;;4989692;28;20050;-84
2022/03/04 10:24:17;;;;;;;14.80;12.57;;;13.30;96.70;;;;;;5011273;28;20527;-85
2022/03/04 10:26:45;;;;;;;17.48;13.38;;;13.30;96.70;;;;;;4989568;28;20042;-83
2022/03/04 10:29:22;;;;;;;18.40;13.52;;;13.40;96.70;;;;;;5012068;28;20046;-86
2022/03/04 10:32:09;;;;;;;17.77;12.80;;;13.50;96.70;;;;;;5005717;28;20054;-85
2022/03/04 10:34:49;;;;;;;13.73;10.75;;;13.50;96.70;;;;;;4985619;28;20105;-84
2022/03/04 10:37:21;;;;;;;12.48;10.43;;;13.60;96.70;;;;;;4986885;28;20070;-84
2022/03/04 10:40:00;;;;;;;14.27;10.23;;;13.70;96.70;;;;;;4993263;28;20045;-84
2022/03/04 10:42:41;;;;;;;14.73;12.38;;;13.70;96.70;;;;;;4972218;28;20060;-84
2022/03/04 10:45:15;;;;;;;13.05;10.20;;;13.70;96.70;;;;;;4988907;28;20566;-83
2022/03/04 10:47:49;;;;;;;11.80;10.23;;;13.80;96.70;;;;;;4981656;28;20046;-84
2022/03/04 10:50:19;;;;;;;12.20;9.60;;;13.90;96.70;;;;;;4989339;28;20042;-85
2022/03/04 10:52:51;;;;;;;14.55;10.10;;;14.00;96.70;;;;;;4989045;28;20057;-83
2022/03/04 10:55:29;;;;;;;13.27;10.43;;;14.00;96.70;;;;;;4971941;28;20426;-83
2022/03/04 10:57:58;;;;;;;13.18;10.02;;;14.10;96.70;;;;;;4992425;28;20052;-84
2022/03/04 11:00:28;;;;;;;12.57;10.05;;;14.10;96.70;;;;;;4988594;28;20038;-85
2022/03/04 11:02:58;;;;;;;12.60;10.63;;;14.10;96.70;;;;;;4990065;28;20141;-86
2022/03/04 11:05:26;;;;;;;12.30;9.80;;;14.20;96.70;;;;;;4987131;28;20046;-84
2022/03/04 11:07:57;;;;;;;14.60;11.02;;;14.10;96.70;;;;;;4993464;28;20053;-86
2022/03/04 11:10:26;;;;;;;11.90;10.32;;;14.10;96.70;;;;;;4986525;28;20057;-86
2022/03/04 11:12:55;;;;;;;11.27;10.07;;;14.20;96.70;;;;;;4990420;28;20053;-85
2022/03/04 11:15:24;;;;;;;13.40;10.40;;;14.30;96.70;;;;;;4988527;28;20052;-85
2022/03/04 11:17:53;;;;;;;13.82;12.02;;;14.30;96.70;;;;;;5007770;28;20049;-85
2022/03/04 11:20:22;;;;;;;12.98;10.15;;;14.30;96.70;;;;;;4987899;28;20493;-85
2022/03/04 11:22:51;;;;;;;12.85;10.55;;;14.40;96.70;;;;;;4987802;28;20073;-85
2022/03/04 11:25:24;;;;;;;12.90;10.52;;;14.50;96.70;;;;;;4985245;28;20109;-86
2022/03/04 11:27:53;;;;;;;15.15;11.15;;;14.60;96.70;;;;;;4983777;28;20100;-85
2022/03/04 11:30:33;;;;;;;12.98;10.70;;;14.60;96.70;;;;;;4992483;28;20077;-85
2022/03/04 11:33:06;;;;;;;14.00;10.48;;;14.50;96.70;;;;;;4991723;28;20056;-85
2022/03/04 11:36:07;;;;;;;11.68;9.30;;;14.70;96.70;;;;;;4994970;28;20074;-86
2022/03/04 11:39:06;;;;;;;12.85;9.93;;;14.90;96.70;;;;;;4999385;28;20046;-86
2022/03/04 11:42:10;;;;;;;12.40;9.95;;;14.90;96.70;;;;;;4975324;28;20589;-85
2022/03/04 11:44:56;;;;;;;11.82;9.25;;;15.00;96.70;;;;;;4999448;28;20136;-86
2022/03/04 11:47:28;;;;;;;13.38;10.10;;;15.00;96.70;;;;;;4989816;28;20085;-86
2022/03/04 11:49:56;;;;;;;12.80;9.30;;;15.10;96.70;;;;;;4996190;28;20038;-86
2022/03/04 11:52:40;;;;;;;12.32;10.27;;;15.20;96.70;;;;;;4998449;28;20046;-86
2022/03/04 11:55:21;;;;;;;11.98;9.60;;;15.30;96.70;;;;;;4987936;28;20043;-86
2022/03/04 11:58:02;;;;;;;14.18;11.80;;;15.40;96.70;;;;;;4990848;28;20054;-86
2022/03/04 12:00:36;;;;;;;12.82;10.57;;;15.20;96.70;;;;;;4998079;28;20042;-85
2022/03/04 12:03:17;;;;;;;13.23;10.60;;;15.00;96.70;;;;;;5009588;28;20125;-86
2022/03/04 12:05:48;;;;;;;12.73;10.68;;;14.90;96.70;;;;;;4993719;28;20043;-86
2022/03/04 12:08:16;;;;;;;12.38;10.23;;;15.10;96.70;;;;;;5006385;28;20485;-86
2022/03/04 12:10:48;;;;;;;12.27;10.25;;;15.30;96.70;;;;;;4991143;28;20057;-86
2022/03/04 12:13:20;;;;;;;14.05;11.18;;;15.40;96.70;;;;;;5006391;28;20050;-86
2022/03/04 12:15:58;;;;;;;11.80;10.50;;;15.40;96.70;;;;;;5019219;28;20046;-86
2022/03/04 12:18:29;;;;;;;11.70;10.15;;;15.40;96.70;;;;;;4991294;28;20046;-86
2022/03/04 12:21:13;;;;;;;10.77;8.70;;;15.50;96.50;;;;;;5013504;28;20090;-85
2022/03/04 12:23:57;;;;;;;12.50;10.27;;;15.50;96.70;;;;;;4976801;28;20141;-85
2022/03/04 12:26:42;;;;;;;11.88;9.23;;;15.80;96.70;;;;;;4995294;28;20070;-86
2022/03/04 12:29:13;;;;;;;9.98;8.98;;;16.00;96.10;;;;;;5008924;28;20125;-86
2022/03/04 12:31:44;;;;;;;8.85;7.85;;;16.00;94.70;;;;;;5000717;28;20038;-86
2022/03/04 12:34:22;;;;;;;10.05;8.35;;;16.10;94.70;;;;;;4989297;28;20100;-85
2022/03/04 12:36:55;;;;;;;9.27;8.30;;;16.30;94.10;;;;;;4994470;28;20107;-85
2022/03/04 12:39:23;;;;;;;11.85;8.95;;;16.40;94.60;;;;;;4991193;28;20050;-84
2022/03/04 12:41:55;;;;;;;11.88;9.18;;;16.30;93.50;;;;;;4979963;28;20066;-85
2022/03/04 12:44:27;;;;;;;12.77;9.32;;;16.30;93.00;;;;;;4992876;28;20495;-85
2022/03/04 12:46:57;;;;;;;11.10;9.30;;;16.40;92.40;;;;;;5005695;28;20049;-85
2022/03/04 12:49:29;;;;;;;11.02;9.35;;;16.30;92.20;;;;;;4991439;28;20109;-85
2022/03/04 12:51:58;;;;;;;9.15;8.25;;;16.50;92.20;;;;;;4973959;28;20050;-86